createdAt,value
2018-12-05T00:00:32.763Z,0
2018-12-05T00:01:13.120Z,0
2018-12-05T00:01:53.601Z,0
2018-12-05T00:02:34.017Z,0
2018-12-05T00:03:14.449Z,0
2018-12-05T00:03:54.828Z,0
2018-12-05T00:04:35.280Z,0
2018-12-05T00:05:15.629Z,0
2018-12-05T00:05:56.064Z,0
2018-12-05T00:06:36.533Z,0
2018-12-05T00:07:16.873Z,0
2018-12-05T00:07:57.321Z,0
2018-12-05T00:08:40.706Z,0
2018-12-05T00:09:21.113Z,0
2018-12-05T00:10:01.753Z,0
2018-12-05T00:10:42.101Z,0
2018-12-05T00:11:22.497Z,0
2018-12-05T00:12:02.986Z,0
2018-12-05T00:12:43.318Z,0
2018-12-05T00:15:23.433Z,0
2018-12-05T00:16:15.827Z,0
2018-12-05T00:17:07.517Z,0
2018-12-05T00:17:59.957Z,0
2018-12-05T00:18:52.421Z,0
2018-12-05T00:19:44.917Z,0
2018-12-05T00:20:37.876Z,0
2018-12-05T00:21:30.108Z,0
2018-12-05T00:22:22.087Z,0
2018-12-05T00:23:13.912Z,0
2018-12-05T00:24:06.950Z,0
2018-12-05T00:24:59.702Z,0
2018-12-05T00:25:52.451Z,0
2018-12-05T00:26:46.680Z,0
2018-12-05T00:29:33.113Z,0
2018-12-05T00:30:13.302Z,0
2018-12-05T00:30:53.732Z,0
2018-12-05T00:31:34.097Z,0
2018-12-05T00:32:14.459Z,0
2018-12-05T00:34:49.840Z,0
2018-12-05T00:35:42.268Z,0
2018-12-05T00:36:34.877Z,0
2018-12-05T00:37:27.268Z,0
2018-12-05T00:38:19.548Z,0
2018-12-05T00:39:11.936Z,0
2018-12-05T00:40:04.289Z,0
2018-12-05T00:40:57.202Z,0
2018-12-05T00:41:48.917Z,0
2018-12-05T00:42:40.914Z,0
2018-12-05T00:43:33.262Z,0
2018-12-05T00:44:25.718Z,0
2018-12-05T00:45:18.202Z,0
2018-12-05T00:46:10.715Z,0
2018-12-05T00:47:03.227Z,0
2018-12-05T00:47:55.503Z,0
2018-12-05T00:48:47.667Z,0
2018-12-05T00:49:39.757Z,0
2018-12-05T00:50:32.184Z,0
2018-12-05T00:51:24.509Z,0
2018-12-05T00:52:16.549Z,0
2018-12-05T00:53:08.820Z,0
2018-12-05T00:54:01.124Z,0
2018-12-05T00:54:53.436Z,0
2018-12-05T00:55:45.669Z,0
2018-12-05T00:56:35.362Z,0
2018-12-05T00:57:15.530Z,0
2018-12-05T00:57:55.856Z,0
2018-12-05T00:58:36.318Z,0
2018-12-05T00:59:16.669Z,0
2018-12-05T00:59:57.090Z,0
2018-12-05T01:00:37.422Z,0
2018-12-05T01:01:17.861Z,0
2018-12-05T01:01:58.343Z,0
2018-12-05T01:02:38.691Z,0
2018-12-05T01:03:19.087Z,0
2018-12-05T01:03:59.432Z,0
2018-12-05T01:04:39.965Z,0
2018-12-05T01:05:20.357Z,0
2018-12-05T01:06:00.753Z,0
2018-12-05T01:06:41.144Z,0
2018-12-05T01:07:21.546Z,0
2018-12-05T01:08:01.983Z,0
2018-12-05T01:08:42.351Z,0
2018-12-05T01:09:22.704Z,0
2018-12-05T01:10:03.241Z,0
2018-12-05T01:10:43.547Z,0
2018-12-05T01:11:23.962Z,0
2018-12-05T01:12:04.396Z,0
2018-12-05T01:12:44.766Z,0
2018-12-05T01:13:25.169Z,0
2018-12-05T01:14:05.538Z,0
2018-12-05T01:14:45.909Z,0
2018-12-05T01:15:26.308Z,0
2018-12-05T01:16:06.710Z,0
2018-12-05T01:16:47.071Z,0
2018-12-05T01:17:27.496Z,0
2018-12-05T01:18:07.870Z,0
2018-12-05T01:18:48.705Z,0
2018-12-05T01:19:28.613Z,0
2018-12-05T01:20:09.032Z,0
2018-12-05T01:20:49.398Z,0
2018-12-05T01:21:29.836Z,0
2018-12-05T01:22:10.192Z,0
2018-12-05T01:22:50.572Z,0
2018-12-05T01:23:31.081Z,0
2018-12-05T01:24:11.433Z,0
2018-12-05T01:24:51.841Z,0
2018-12-05T01:25:32.177Z,0
2018-12-05T01:26:12.618Z,0
2018-12-05T01:26:53.011Z,0
2018-12-05T01:27:33.380Z,0
2018-12-05T01:28:13.733Z,0
2018-12-05T01:28:54.176Z,0
2018-12-05T01:29:34.618Z,0
2018-12-05T01:30:15.025Z,0
2018-12-05T01:30:55.356Z,0
2018-12-05T01:31:35.753Z,0
2018-12-05T01:32:16.142Z,0
2018-12-05T01:32:56.561Z,0
2018-12-05T01:33:36.914Z,0
2018-12-05T01:34:17.303Z,0
2018-12-05T01:34:57.712Z,0
2018-12-05T01:35:38.168Z,0
2018-12-05T01:36:18.543Z,0
2018-12-05T01:36:58.925Z,0
2018-12-05T01:37:39.330Z,0
2018-12-05T01:38:19.645Z,0
2018-12-05T01:39:00.089Z,0
2018-12-05T01:39:40.537Z,0
2018-12-05T01:40:20.931Z,0
2018-12-05T01:41:01.301Z,0
2018-12-05T01:41:41.649Z,0
2018-12-05T01:42:22.025Z,0
2018-12-05T01:43:02.486Z,0
2018-12-05T01:43:42.893Z,0
2018-12-05T01:44:23.255Z,0
2018-12-05T01:45:03.603Z,0
2018-12-05T01:45:44.065Z,0
2018-12-05T01:46:24.480Z,0
2018-12-05T01:47:04.908Z,0
2018-12-05T01:47:45.288Z,0
2018-12-05T01:48:25.664Z,0
2018-12-05T01:49:06.007Z,0
2018-12-05T01:49:46.523Z,0
2018-12-05T01:50:26.825Z,0
2018-12-05T01:51:07.248Z,0
2018-12-05T01:51:47.595Z,0
2018-12-05T01:52:27.948Z,0
2018-12-05T01:53:08.314Z,0
2018-12-05T01:53:48.739Z,0
2018-12-05T01:54:29.160Z,0
2018-12-05T01:55:09.565Z,0
2018-12-05T01:55:49.956Z,0
2018-12-05T01:56:30.398Z,0
2018-12-05T01:57:10.795Z,0
2018-12-05T01:57:51.283Z,0
2018-12-05T01:58:31.712Z,0
2018-12-05T01:59:12.117Z,0
2018-12-05T01:59:52.487Z,0
2018-12-05T02:00:32.884Z,0
2018-12-05T02:01:13.223Z,0
2018-12-05T02:01:53.641Z,0
2018-12-05T02:02:34.030Z,0
2018-12-05T02:03:14.397Z,0
2018-12-05T02:03:54.828Z,0
2018-12-05T02:04:35.188Z,0
2018-12-05T02:05:15.560Z,0
2018-12-05T02:05:55.981Z,0
2018-12-05T02:06:36.326Z,0
2018-12-05T02:07:16.727Z,0
2018-12-05T02:07:57.098Z,0
2018-12-05T02:08:37.501Z,0
2018-12-05T02:09:17.905Z,0
2018-12-05T02:09:58.306Z,0
2018-12-05T02:10:38.703Z,0
2018-12-05T02:11:19.058Z,0
2018-12-05T02:11:59.416Z,0
2018-12-05T02:12:39.844Z,0
2018-12-05T02:13:20.191Z,0
2018-12-05T02:14:00.598Z,0
2018-12-05T02:14:41.030Z,0
2018-12-05T02:15:21.415Z,0
2018-12-05T02:16:01.764Z,0
2018-12-05T02:16:42.178Z,0
2018-12-05T02:17:22.567Z,0
2018-12-05T02:18:02.962Z,0
2018-12-05T02:18:43.352Z,0
2018-12-05T02:19:23.765Z,0
2018-12-05T02:20:04.148Z,0
2018-12-05T02:20:44.527Z,0
2018-12-05T02:21:24.980Z,0
2018-12-05T02:22:05.309Z,0
2018-12-05T02:22:45.637Z,0
2018-12-05T02:23:26.100Z,0
2018-12-05T02:24:06.626Z,0
2018-12-05T02:24:46.995Z,0
2018-12-05T02:25:27.373Z,0
2018-12-05T02:26:07.790Z,0
2018-12-05T02:26:48.228Z,0
2018-12-05T02:27:28.617Z,0
2018-12-05T02:28:08.966Z,0
2018-12-05T02:28:49.362Z,0
2018-12-05T02:29:29.729Z,0
2018-12-05T02:30:10.143Z,0
2018-12-05T02:30:50.553Z,0
2018-12-05T02:31:30.919Z,0
2018-12-05T02:32:11.335Z,0
2018-12-05T02:32:51.673Z,0
2018-12-05T02:33:32.172Z,0
2018-12-05T02:34:12.510Z,0
2018-12-05T02:34:52.892Z,0
2018-12-05T02:35:33.243Z,0
2018-12-05T02:36:13.667Z,0
2018-12-05T02:36:54.047Z,0
2018-12-05T02:37:34.427Z,0
2018-12-05T02:38:14.805Z,0
2018-12-05T02:38:55.201Z,0
2018-12-05T02:39:35.622Z,0
2018-12-05T02:40:16.060Z,0
2018-12-05T02:40:56.409Z,0
2018-12-05T02:41:36.888Z,0
2018-12-05T02:42:17.318Z,0
2018-12-05T02:42:57.746Z,0
2018-12-05T02:43:38.023Z,0
2018-12-05T02:44:18.448Z,0
2018-12-05T02:44:58.902Z,0
2018-12-05T02:45:39.285Z,0
2018-12-05T02:46:19.681Z,0
2018-12-05T02:46:59.992Z,0
2018-12-05T02:47:40.456Z,0
2018-12-05T02:48:20.906Z,0
2018-12-05T02:49:01.293Z,0
2018-12-05T02:49:41.740Z,0
2018-12-05T02:50:22.132Z,0
2018-12-05T02:51:02.517Z,0
2018-12-05T02:51:42.858Z,0
2018-12-05T02:52:23.305Z,0
2018-12-05T02:53:03.750Z,0
2018-12-05T02:53:44.091Z,0
2018-12-05T02:54:24.491Z,0
2018-12-05T02:55:04.928Z,0
2018-12-05T02:55:45.311Z,0
2018-12-05T02:56:25.781Z,0
2018-12-05T02:57:06.201Z,0
2018-12-05T02:57:46.521Z,0
2018-12-05T02:58:26.862Z,0
2018-12-05T02:59:07.351Z,0
2018-12-05T02:59:47.750Z,0
2018-12-05T03:00:28.150Z,0
2018-12-05T03:01:08.487Z,0
2018-12-05T03:01:48.925Z,0
2018-12-05T03:02:29.277Z,0
2018-12-05T03:03:09.757Z,0
2018-12-05T03:03:50.068Z,0
2018-12-05T03:04:30.449Z,0
2018-12-05T03:05:10.775Z,0
2018-12-05T03:05:51.235Z,0
2018-12-05T03:06:31.651Z,0
2018-12-05T03:07:12.005Z,0
2018-12-05T03:07:52.505Z,0
2018-12-05T03:08:32.885Z,0
2018-12-05T03:09:13.247Z,0
2018-12-05T03:09:53.569Z,0
2018-12-05T03:10:34.021Z,0
2018-12-05T03:11:14.428Z,0
2018-12-05T03:11:54.788Z,0
2018-12-05T03:12:35.230Z,0
2018-12-05T03:13:15.611Z,0
2018-12-05T03:13:56.007Z,0
2018-12-05T03:14:36.440Z,0
2018-12-05T03:15:16.838Z,0
2018-12-05T03:15:57.258Z,0
2018-12-05T03:16:37.613Z,0
2018-12-05T03:17:18.043Z,0
2018-12-05T03:17:58.386Z,0
2018-12-05T03:18:38.760Z,0
2018-12-05T03:19:19.288Z,0
2018-12-05T03:19:59.674Z,0
2018-12-05T03:20:40.034Z,0
2018-12-05T03:21:20.442Z,0
2018-12-05T03:22:00.840Z,0
2018-12-05T03:22:41.189Z,0
2018-12-05T03:23:21.633Z,0
2018-12-05T03:24:02.059Z,0
2018-12-05T03:24:42.424Z,0
2018-12-05T03:25:22.854Z,0
2018-12-05T03:26:03.252Z,0
2018-12-05T03:26:43.663Z,0
2018-12-05T03:27:24.056Z,0
2018-12-05T03:28:04.415Z,0
2018-12-05T03:28:44.761Z,0
2018-12-05T03:29:25.207Z,0
2018-12-05T03:30:05.607Z,0
2018-12-05T03:30:46.012Z,0
2018-12-05T03:31:26.409Z,0
2018-12-05T03:32:06.775Z,0
2018-12-05T03:32:47.200Z,0
2018-12-05T03:33:27.612Z,0
2018-12-05T03:34:08.017Z,0
2018-12-05T03:34:48.388Z,0
2018-12-05T03:35:28.846Z,0
2018-12-05T03:36:09.179Z,0
2018-12-05T03:36:49.642Z,0
2018-12-05T03:37:30.045Z,0
2018-12-05T03:38:10.460Z,0
2018-12-05T03:38:50.926Z,0
2018-12-05T03:39:31.222Z,0
2018-12-05T03:40:11.604Z,0
2018-12-05T03:40:52.119Z,0
2018-12-05T03:41:32.499Z,0
2018-12-05T03:42:12.936Z,0
2018-12-05T03:42:53.288Z,0
2018-12-05T03:43:33.706Z,0
2018-12-05T03:44:14.054Z,0
2018-12-05T03:44:54.515Z,0
2018-12-05T03:45:34.791Z,0
2018-12-05T03:46:15.176Z,0
2018-12-05T03:46:55.742Z,0
2018-12-05T03:47:36.155Z,0
2018-12-05T03:48:16.568Z,0
2018-12-05T03:48:56.999Z,0
2018-12-05T03:49:37.393Z,0
2018-12-05T03:50:17.699Z,0
2018-12-05T03:50:58.141Z,0
2018-12-05T03:51:38.439Z,0
2018-12-05T03:52:18.899Z,0
2018-12-05T03:52:59.316Z,0
2018-12-05T03:53:39.752Z,0
2018-12-05T03:54:20.091Z,0
2018-12-05T03:55:00.560Z,0
2018-12-05T03:55:40.881Z,0
2018-12-05T03:56:21.256Z,0
2018-12-05T03:57:01.712Z,0
2018-12-05T03:57:42.053Z,0
2018-12-05T03:58:22.545Z,0
2018-12-05T03:59:02.878Z,0
2018-12-05T03:59:43.336Z,0
2018-12-05T04:00:23.673Z,0
2018-12-05T04:01:04.064Z,0
2018-12-05T04:01:44.421Z,0
2018-12-05T04:02:25.049Z,0
2018-12-05T04:03:05.333Z,0
2018-12-05T04:03:45.889Z,0
2018-12-05T04:04:26.269Z,0
2018-12-05T04:05:06.669Z,0
2018-12-05T04:05:47.064Z,0
2018-12-05T04:06:27.500Z,0
2018-12-05T04:07:07.874Z,0
2018-12-05T04:07:48.321Z,0
2018-12-05T04:08:28.693Z,0
2018-12-05T04:09:09.041Z,0
2018-12-05T04:09:49.503Z,0
2018-12-05T04:10:29.818Z,0
2018-12-05T04:11:10.279Z,0
2018-12-05T04:11:50.599Z,0
2018-12-05T04:12:31.001Z,0
2018-12-05T04:13:11.476Z,0
2018-12-05T04:13:51.880Z,0
2018-12-05T04:14:32.177Z,0
2018-12-05T04:15:12.577Z,0
2018-12-05T04:15:52.984Z,0
2018-12-05T04:16:33.366Z,0
2018-12-05T04:17:13.774Z,0
2018-12-05T04:17:54.145Z,0
2018-12-05T04:18:34.561Z,0
2018-12-05T04:19:14.932Z,0
2018-12-05T04:19:55.368Z,0
2018-12-05T04:20:35.775Z,0
2018-12-05T04:21:16.296Z,0
2018-12-05T04:21:56.583Z,0
2018-12-05T04:22:37.004Z,0
2018-12-05T04:23:17.350Z,0
2018-12-05T04:23:57.791Z,0
2018-12-05T04:24:38.281Z,0
2018-12-05T04:25:18.609Z,0
2018-12-05T04:25:59.019Z,0
2018-12-05T04:26:39.426Z,0
2018-12-05T04:27:19.832Z,0
2018-12-05T05:07:11.016Z,0
2018-12-05T05:08:03.256Z,0
2018-12-05T05:08:55.281Z,0
2018-12-05T05:09:48.817Z,0
2018-12-05T05:12:41.475Z,0
2018-12-05T05:13:33.676Z,0
2018-12-05T05:14:25.373Z,0
2018-12-05T05:15:17.360Z,0
2018-12-05T05:16:09.601Z,0
2018-12-05T05:16:52.969Z,0
2018-12-05T05:17:33.313Z,0
2018-12-05T05:18:13.780Z,0
2018-12-05T05:18:54.132Z,0
2018-12-05T05:19:34.554Z,0
2018-12-05T05:20:14.925Z,0
2018-12-05T05:20:55.387Z,0
2018-12-05T05:21:35.753Z,0
2018-12-05T05:22:16.204Z,0
2018-12-05T05:22:56.559Z,0
2018-12-05T05:23:36.955Z,0
2018-12-05T05:24:17.368Z,0
2018-12-05T05:24:57.791Z,0
2018-12-05T05:25:38.144Z,0
2018-12-05T05:26:18.592Z,0
2018-12-05T05:26:58.945Z,0
2018-12-05T05:27:45.671Z,0
2018-12-05T05:28:19.862Z,0
2018-12-05T05:29:00.201Z,0
2018-12-05T05:29:40.622Z,0
2018-12-05T05:30:20.979Z,0
2018-12-05T05:31:01.335Z,0
2018-12-05T05:31:41.781Z,0
2018-12-05T05:32:22.173Z,0
2018-12-05T05:33:02.558Z,0
2018-12-05T05:33:42.979Z,0
2018-12-05T05:34:23.338Z,0
2018-12-05T05:35:03.708Z,0
2018-12-05T05:35:44.106Z,0
2018-12-05T05:36:24.499Z,0
2018-12-05T05:37:04.949Z,0
2018-12-05T05:37:45.410Z,0
2018-12-05T05:38:25.887Z,0
2018-12-05T05:39:06.295Z,0
2018-12-05T05:39:46.710Z,0
2018-12-05T05:40:27.111Z,0
2018-12-05T05:41:07.482Z,0
2018-12-05T05:41:47.866Z,0
2018-12-05T05:42:28.285Z,0
2018-12-05T05:43:08.792Z,0
2018-12-05T05:43:49.182Z,0
2018-12-05T05:44:29.567Z,0
2018-12-05T05:45:10.015Z,0
2018-12-05T05:45:50.381Z,0
2018-12-05T05:46:30.764Z,0
2018-12-05T05:47:11.229Z,0
2018-12-05T05:47:51.568Z,0
2018-12-05T05:48:31.974Z,0
2018-12-05T05:49:12.295Z,0
2018-12-05T05:49:52.733Z,0
2018-12-05T05:50:33.104Z,0
2018-12-05T05:51:13.546Z,0
2018-12-05T05:51:53.912Z,0
2018-12-05T05:52:34.294Z,0
2018-12-05T05:53:14.702Z,0
2018-12-05T05:53:55.174Z,0
2018-12-05T05:54:35.555Z,0
2018-12-05T05:55:15.879Z,0
2018-12-05T05:55:56.284Z,0
2018-12-05T05:56:36.702Z,0
2018-12-05T05:57:17.382Z,0
2018-12-05T05:57:57.997Z,0
2018-12-05T05:58:38.337Z,0
2018-12-05T05:59:18.847Z,0
2018-12-05T05:59:59.188Z,0
2018-12-05T06:00:39.624Z,0
2018-12-05T06:01:20.080Z,0
2018-12-05T06:02:00.422Z,0
2018-12-05T06:02:40.913Z,0
2018-12-05T06:03:21.316Z,0
2018-12-05T06:04:01.637Z,0
2018-12-05T06:04:42.096Z,0
2018-12-05T06:05:22.546Z,0
2018-12-05T06:06:02.850Z,0
2018-12-05T06:06:43.275Z,0
2018-12-05T06:07:23.679Z,0
2018-12-05T06:08:04.078Z,0
2018-12-05T06:08:44.485Z,0
2018-12-05T06:09:24.864Z,0
2018-12-05T06:10:05.295Z,0
2018-12-05T06:10:45.708Z,0
2018-12-05T06:11:26.131Z,0
2018-12-05T06:12:06.594Z,0
2018-12-05T06:12:46.938Z,0
2018-12-05T06:13:27.333Z,0
2018-12-05T06:14:07.760Z,0
2018-12-05T06:14:48.354Z,0
2018-12-05T06:15:28.661Z,0
2018-12-05T06:16:09.156Z,0
2018-12-05T06:16:49.544Z,0
2018-12-05T06:17:30.010Z,0
2018-12-05T06:18:10.407Z,0
2018-12-05T06:18:50.803Z,0
2018-12-05T06:19:31.156Z,0
2018-12-05T06:20:11.614Z,0
2018-12-05T06:20:52.379Z,0
2018-12-05T06:21:32.989Z,0
2018-12-05T06:22:13.426Z,0
2018-12-05T06:22:53.793Z,0
2018-12-05T06:23:34.287Z,0
2018-12-05T06:24:14.623Z,0
2018-12-05T06:24:55.011Z,0
2018-12-05T06:25:35.472Z,0
2018-12-05T06:26:15.892Z,0
2018-12-05T06:26:56.344Z,0
2018-12-05T06:27:36.762Z,0
2018-12-05T06:28:18.322Z,0
2018-12-05T06:28:58.771Z,0
2018-12-05T06:29:40.873Z,0
2018-12-05T06:30:23.525Z,0
2018-12-05T06:31:03.944Z,0
2018-12-05T06:31:44.383Z,0
2018-12-05T06:32:24.749Z,0
2018-12-05T06:33:05.070Z,0
2018-12-05T06:33:45.512Z,0
2018-12-05T06:34:26.005Z,0
2018-12-05T06:35:06.422Z,0
2018-12-05T06:35:46.744Z,0
2018-12-05T06:36:27.153Z,0
2018-12-05T06:37:07.651Z,0
2018-12-05T06:37:47.993Z,0
2018-12-05T06:38:28.328Z,0
2018-12-05T06:39:08.750Z,0
2018-12-05T06:39:49.178Z,0
2018-12-05T06:40:30.063Z,0
2018-12-05T06:41:13.436Z,0
2018-12-05T06:41:53.597Z,0
2018-12-05T06:42:34.043Z,0
2018-12-05T06:43:14.557Z,0
2018-12-05T06:43:54.961Z,0
2018-12-05T06:44:35.354Z,0
2018-12-05T06:45:16.654Z,0
2018-12-05T06:45:57.172Z,0
2018-12-05T06:46:37.398Z,0
2018-12-05T06:47:17.938Z,0
2018-12-05T06:47:58.486Z,0
2018-12-05T06:48:38.759Z,0
2018-12-05T06:49:19.157Z,0
2018-12-05T06:49:59.588Z,4
2018-12-05T06:50:40.071Z,4
2018-12-05T06:51:20.634Z,0
2018-12-05T06:52:01.247Z,0
2018-12-05T06:52:41.712Z,0
2018-12-05T06:53:22.129Z,4
2018-12-05T06:54:02.734Z,4
2018-12-05T06:54:43.157Z,0
2018-12-05T06:55:24.178Z,0
2018-12-05T06:56:04.502Z,4
2018-12-05T06:56:44.842Z,4
2018-12-05T06:57:25.259Z,4
2018-12-05T06:58:09.926Z,4
2018-12-05T06:58:51.522Z,4
2018-12-05T06:59:32.005Z,4
2018-12-05T07:00:12.386Z,4
2018-12-05T07:00:52.930Z,4
2018-12-05T07:01:33.366Z,4
2018-12-05T07:02:13.809Z,8
2018-12-05T07:02:54.481Z,4
2018-12-05T07:05:46.348Z,4
2018-12-05T07:06:26.707Z,8
2018-12-05T07:07:07.043Z,8
2018-12-05T07:07:47.492Z,8
2018-12-05T07:08:27.973Z,8
2018-12-05T07:09:08.502Z,8
2018-12-05T07:09:48.947Z,12
2018-12-05T07:10:29.408Z,12
2018-12-05T07:11:09.770Z,12
2018-12-05T07:11:50.171Z,12
2018-12-05T07:12:30.664Z,12
2018-12-05T07:13:11.083Z,16
2018-12-05T07:13:51.570Z,16
2018-12-05T07:14:31.969Z,16
2018-12-05T07:15:12.379Z,20
2018-12-05T07:15:52.892Z,20
2018-12-05T07:16:33.170Z,20
2018-12-05T07:17:13.952Z,20
2018-12-05T07:17:54.318Z,20
2018-12-05T07:18:34.764Z,24
2018-12-05T07:19:15.544Z,24
2018-12-05T07:19:55.963Z,24
2018-12-05T07:20:36.542Z,24
2018-12-05T07:21:16.954Z,28
2018-12-05T07:21:57.456Z,32
2018-12-05T07:22:37.798Z,28
2018-12-05T07:23:18.257Z,36
2018-12-05T07:23:58.819Z,36
2018-12-05T07:24:39.396Z,40
2018-12-05T07:25:19.844Z,44
2018-12-05T07:26:00.226Z,44
2018-12-05T07:26:40.591Z,48
2018-12-05T07:27:21.230Z,48
2018-12-05T07:28:01.716Z,52
2018-12-05T07:28:42.162Z,52
2018-12-05T07:29:22.778Z,56
2018-12-05T07:30:03.198Z,56
2018-12-05T07:30:43.603Z,56
2018-12-05T07:31:24.114Z,60
2018-12-05T07:32:04.573Z,64
2018-12-05T07:32:44.977Z,60
2018-12-05T07:33:25.449Z,64
2018-12-05T07:34:05.877Z,68
2018-12-05T07:34:46.289Z,68
2018-12-05T07:35:26.821Z,72
2018-12-05T07:36:07.338Z,76
2018-12-05T07:36:47.861Z,76
2018-12-05T07:37:28.300Z,80
2018-12-05T07:38:08.875Z,84
2018-12-05T07:38:49.388Z,84
2018-12-05T07:39:30.046Z,88
2018-12-05T07:40:10.478Z,92
2018-12-05T07:40:50.913Z,100
2018-12-05T07:41:31.352Z,104
2018-12-05T07:42:11.816Z,108
2018-12-05T07:42:52.350Z,112
2018-12-05T07:43:32.832Z,116
2018-12-05T07:44:13.355Z,116
2018-12-05T07:44:53.682Z,120
2018-12-05T07:45:34.210Z,120
2018-12-05T07:46:14.739Z,124
2018-12-05T07:46:55.351Z,124
2018-12-05T07:47:35.748Z,124
2018-12-05T07:48:16.237Z,128
2018-12-05T07:48:56.644Z,132
2018-12-05T07:49:37.179Z,132
2018-12-05T07:50:17.728Z,132
2018-12-05T07:50:58.177Z,136
2018-12-05T07:51:38.522Z,132
2018-12-05T07:52:18.962Z,136
2018-12-05T07:52:59.428Z,140
2018-12-05T07:53:39.904Z,140
2018-12-05T07:54:20.604Z,144
2018-12-05T07:55:01.143Z,144
2018-12-05T07:55:42.723Z,148
2018-12-05T07:56:23.144Z,152
2018-12-05T07:57:03.719Z,156
2018-12-05T07:57:44.163Z,160
2018-12-05T07:58:24.731Z,160
2018-12-05T07:59:05.269Z,164
2018-12-05T07:59:45.903Z,168
2018-12-05T08:00:26.341Z,172
2018-12-05T08:01:06.826Z,172
2018-12-05T08:01:48.114Z,176
2018-12-05T08:02:29.272Z,180
2018-12-05T08:03:09.081Z,184
2018-12-05T08:03:49.705Z,192
2018-12-05T08:04:30.431Z,196
2018-12-05T08:05:11.884Z,200
2018-12-05T08:05:51.894Z,204
2018-12-05T08:06:33.623Z,212
2018-12-05T08:07:14.104Z,212
2018-12-05T08:07:55.125Z,220
2018-12-05T08:08:34.848Z,224
2018-12-05T08:09:15.498Z,224
2018-12-05T08:09:56.306Z,228
2018-12-05T08:10:37.128Z,232
2018-12-05T08:11:17.617Z,236
2018-12-05T08:11:58.115Z,236
2018-12-05T08:12:39.129Z,240
2018-12-05T08:13:20.224Z,244
2018-12-05T08:14:00.797Z,240
2018-12-05T08:14:41.314Z,240
2018-12-05T08:15:21.795Z,244
2018-12-05T08:16:02.414Z,244
2018-12-05T08:16:42.835Z,248
2018-12-05T08:17:23.290Z,252
2018-12-05T08:18:03.750Z,256
2018-12-05T08:18:44.332Z,260
2018-12-05T08:19:24.705Z,260
2018-12-05T08:20:05.479Z,256
2018-12-05T08:20:45.876Z,252
2018-12-05T08:21:26.234Z,248
2018-12-05T08:22:06.815Z,244
2018-12-05T08:22:48.150Z,244
2018-12-05T08:23:28.463Z,244
2018-12-05T08:24:09.011Z,244
2018-12-05T08:24:49.589Z,240
2018-12-05T08:25:30.015Z,240
2018-12-05T08:26:10.537Z,240
2018-12-05T08:26:51.069Z,244
2018-12-05T08:27:32.285Z,244
2018-12-05T08:28:12.535Z,248
2018-12-05T08:28:53.617Z,248
2018-12-05T08:29:34.780Z,252
2018-12-05T08:30:14.587Z,248
2018-12-05T08:30:55.931Z,252
2018-12-05T08:31:37.174Z,252
2018-12-05T08:32:17.423Z,256
2018-12-05T08:32:58.643Z,260
2018-12-05T08:33:38.789Z,260
2018-12-05T08:34:19.201Z,264
2018-12-05T08:35:00.615Z,268
2018-12-05T08:35:40.632Z,268
2018-12-05T08:36:22.194Z,272
2018-12-05T08:37:01.813Z,268
2018-12-05T08:37:42.606Z,268
2018-12-05T08:38:23.310Z,272
2018-12-05T08:39:03.989Z,272
2018-12-05T08:39:44.633Z,272
2018-12-05T08:40:26.321Z,272
2018-12-05T08:41:05.787Z,276
2018-12-05T08:41:46.452Z,272
2018-12-05T08:42:26.978Z,272
2018-12-05T08:43:07.386Z,272
2018-12-05T08:43:47.928Z,272
2018-12-05T08:44:28.412Z,276
2018-12-05T08:45:08.886Z,280
2018-12-05T08:45:49.469Z,280
2018-12-05T08:46:29.794Z,280
2018-12-05T08:47:10.574Z,280
2018-12-05T08:47:51.021Z,284
2018-12-05T08:48:31.784Z,292
2018-12-05T08:49:12.301Z,288
2018-12-05T08:49:53.201Z,296
2018-12-05T08:50:34.199Z,308
2018-12-05T08:51:14.328Z,312
2018-12-05T08:51:54.722Z,324
2018-12-05T08:52:35.331Z,328
2018-12-05T08:53:15.790Z,332
2018-12-05T08:53:56.265Z,344
2018-12-05T08:54:36.989Z,352
2018-12-05T08:55:17.418Z,368
2018-12-05T08:55:57.980Z,376
2018-12-05T08:56:38.508Z,380
2018-12-05T08:57:18.895Z,388
2018-12-05T08:57:59.307Z,396
2018-12-05T08:58:39.737Z,396
2018-12-05T08:59:20.402Z,408
2018-12-05T09:00:00.858Z,416
2018-12-05T09:00:41.316Z,420
2018-12-05T09:01:21.920Z,428
2018-12-05T09:02:02.444Z,432
2018-12-05T09:02:42.842Z,440
2018-12-05T09:03:23.299Z,452
2018-12-05T09:04:03.721Z,460
2018-12-05T09:04:44.228Z,468
2018-12-05T09:05:24.839Z,476
2018-12-05T09:06:06.119Z,488
2018-12-05T09:06:45.851Z,524
2018-12-05T09:07:26.381Z,544
2018-12-05T09:08:06.767Z,548
2018-12-05T09:08:47.267Z,540
2018-12-05T09:09:28.775Z,540
2018-12-05T09:10:08.652Z,540
2018-12-05T09:10:49.586Z,540
2018-12-05T09:11:30.152Z,540
2018-12-05T09:12:10.571Z,536
2018-12-05T09:12:51.017Z,524
2018-12-05T09:13:31.459Z,512
2018-12-05T09:14:11.989Z,496
2018-12-05T09:14:52.405Z,488
2018-12-05T09:15:33.057Z,484
2018-12-05T09:16:14.155Z,476
2018-12-05T09:16:54.639Z,464
2018-12-05T09:17:34.490Z,456
2018-12-05T09:18:15.144Z,448
2018-12-05T09:18:55.611Z,436
2018-12-05T09:19:36.092Z,432
2018-12-05T09:20:16.610Z,428
2018-12-05T09:20:57.249Z,420
2018-12-05T09:21:37.756Z,420
2018-12-05T09:22:18.214Z,420
2018-12-05T09:22:58.665Z,424
2018-12-05T09:23:39.401Z,428
2018-12-05T09:24:19.903Z,428
2018-12-05T09:25:00.500Z,432
2018-12-05T09:25:41.042Z,440
2018-12-05T09:26:21.462Z,456
2018-12-05T09:27:01.906Z,464
2018-12-05T09:27:42.346Z,468
2018-12-05T09:28:22.776Z,468
2018-12-05T09:29:03.210Z,476
2018-12-05T09:29:43.792Z,492
2018-12-05T09:30:24.259Z,508
2018-12-05T09:31:04.720Z,532
2018-12-05T09:31:45.228Z,552
2018-12-05T09:32:25.824Z,572
2018-12-05T09:33:06.289Z,580
2018-12-05T09:33:46.876Z,592
2018-12-05T09:34:27.385Z,600
2018-12-05T09:35:07.923Z,608
2018-12-05T09:35:48.643Z,616
2018-12-05T09:36:29.761Z,628
2018-12-05T09:37:09.891Z,644
2018-12-05T09:37:50.755Z,660
2018-12-05T09:38:31.445Z,668
2018-12-05T09:39:12.164Z,668
2018-12-05T09:39:52.541Z,664
2018-12-05T09:40:33.315Z,652
2018-12-05T09:41:13.956Z,644
2018-12-05T09:41:54.864Z,632
2018-12-05T09:42:35.374Z,632
2018-12-05T09:43:16.628Z,640
2018-12-05T09:43:56.649Z,652
2018-12-05T09:44:38.171Z,656
2018-12-05T09:45:18.401Z,648
2018-12-05T09:45:59.638Z,644
2018-12-05T09:46:40.147Z,644
2018-12-05T09:47:20.757Z,652
2018-12-05T09:48:02.143Z,660
2018-12-05T09:48:42.154Z,668
2018-12-05T09:49:22.961Z,668
2018-12-05T09:50:04.393Z,684
2018-12-05T09:50:44.400Z,688
2018-12-05T09:51:24.810Z,684
2018-12-05T09:52:05.223Z,676
2018-12-05T09:52:45.639Z,672
2018-12-05T09:53:26.139Z,680
2018-12-05T09:54:06.660Z,692
2018-12-05T09:54:47.086Z,700
2018-12-05T09:55:27.562Z,708
2018-12-05T09:56:08.655Z,712
2018-12-05T09:56:49.087Z,728
2018-12-05T09:57:29.539Z,752
2018-12-05T09:58:09.885Z,768
2018-12-05T09:58:50.575Z,780
2018-12-05T09:59:30.870Z,796
2018-12-05T10:00:11.331Z,804
2018-12-05T10:00:51.773Z,808
2018-12-05T10:01:32.392Z,824
2018-12-05T10:02:12.816Z,836
2018-12-05T10:02:53.222Z,844
2018-12-05T10:03:33.610Z,856
2018-12-05T10:04:14.481Z,860
2018-12-05T10:04:54.472Z,860
2018-12-05T10:05:34.934Z,852
2018-12-05T10:06:15.364Z,832
2018-12-05T10:06:55.822Z,796
2018-12-05T10:07:36.282Z,764
2018-12-05T10:08:16.648Z,740
2018-12-05T10:08:57.328Z,712
2018-12-05T10:09:37.876Z,696
2018-12-05T10:10:18.378Z,684
2018-12-05T10:10:58.672Z,680
2018-12-05T10:11:39.233Z,676
2018-12-05T10:12:19.583Z,676
2018-12-05T10:13:00.093Z,676
2018-12-05T10:13:40.543Z,676
2018-12-05T10:14:22.143Z,680
2018-12-05T10:15:03.038Z,680
2018-12-05T10:15:44.683Z,680
2018-12-05T10:16:25.208Z,688
2018-12-05T10:17:05.852Z,692
2018-12-05T10:17:46.385Z,700
2018-12-05T10:18:26.953Z,696
2018-12-05T10:19:07.325Z,700
2018-12-05T10:19:47.706Z,696
2018-12-05T10:20:28.239Z,688
2018-12-05T10:21:10.369Z,660
2018-12-05T10:23:21.866Z,580
2018-12-05T10:24:01.985Z,572
2018-12-05T10:24:42.401Z,576
2018-12-05T10:25:23.842Z,568
2018-12-05T10:26:04.094Z,568
2018-12-05T10:26:44.483Z,576
2018-12-05T10:27:25.671Z,584
2018-12-05T10:28:05.658Z,592
2018-12-05T10:28:46.515Z,600
2018-12-05T10:29:26.986Z,604
2018-12-05T11:13:48.056Z,752
2018-12-05T11:14:37.862Z,752
2018-12-05T11:15:20.077Z,756
2018-12-05T11:16:00.548Z,752
2018-12-05T11:16:41.063Z,756
2018-12-05T11:17:21.535Z,756
2018-12-05T11:18:02.359Z,756
2018-12-05T11:18:42.913Z,760
2018-12-05T11:19:23.111Z,764
2018-12-05T11:20:03.687Z,764
2018-12-05T11:20:44.234Z,760
2018-12-05T11:21:24.734Z,768
2018-12-05T11:22:05.123Z,764
2018-12-05T11:22:45.501Z,768
2018-12-05T11:23:25.962Z,776
2018-12-05T11:24:06.478Z,784
2018-12-05T11:24:46.727Z,780
2018-12-05T11:25:27.212Z,788
2018-12-05T11:26:07.864Z,800
2018-12-05T11:31:21.726Z,788
2018-12-05T11:32:07.822Z,784
2018-12-05T11:32:48.262Z,780